sensor_id;sensor_type;location;lat;lon;timestamp;P1;durP1;ratioP1;P2;durP2;ratioP2
44130;SDS011;29792;48.726;9.248;2022-12-18T00:01:28;65.35;;;30.40;;
44130;SDS011;29792;48.726;9.248;2022-12-18T00:03:57;72.93;;;32.95;;
44130;SDS011;29792;48.726;9.248;2022-12-18T00:06:24;61.40;;;29.40;;
44130;SDS011;29792;48.726;9.248;2022-12-18T00:08:51;80.22;;;34.83;;
44130;SDS011;29792;48.726;9.248;2022-12-18T00:11:18;72.43;;;32.92;;
44130;SDS011;29792;48.726;9.248;2022-12-18T00:13:46;72.35;;;35.30;;
44130;SDS011;29792;48.726;9.248;2022-12-18T00:16:13;68.90;;;37.55;;
44130;SDS011;29792;48.726;9.248;2022-12-18T00:18:39;73.20;;;36.20;;
44130;SDS011;29792;48.726;9.248;2022-12-18T00:21:06;99.72;;;38.20;;
44130;SDS011;29792;48.726;9.248;2022-12-18T00:23:33;70.90;;;32.05;;
44130;SDS011;29792;48.726;9.248;2022-12-18T00:26:00;113.28;;;36.20;;
44130;SDS011;29792;48.726;9.248;2022-12-18T00:28:26;83.00;;;35.53;;
44130;SDS011;29792;48.726;9.248;2022-12-18T00:31:25;82.07;;;36.83;;
44130;SDS011;29792;48.726;9.248;2022-12-18T00:33:45;82.68;;;36.20;;
44130;SDS011;29792;48.726;9.248;2022-12-18T00:38:45;78.82;;;36.45;;
44130;SDS011;29792;48.726;9.248;2022-12-18T00:41:11;99.03;;;36.65;;
44130;SDS011;29792;48.726;9.248;2022-12-18T00:43:38;74.57;;;35.92;;
44130;SDS011;29792;48.726;9.248;2022-12-18T00:46:04;76.45;;;32.45;;
44130;SDS011;29792;48.726;9.248;2022-12-18T00:48:30;77.15;;;36.08;;
44130;SDS011;29792;48.726;9.248;2022-12-18T00:50:55;73.90;;;33.35;;
44130;SDS011;29792;48.726;9.248;2022-12-18T00:53:21;82.70;;;36.08;;
44130;SDS011;29792;48.726;9.248;2022-12-18T00:55:47;101.32;;;37.03;;
44130;SDS011;29792;48.726;9.248;2022-12-18T00:58:13;72.28;;;36.88;;
44130;SDS011;29792;48.726;9.248;2022-12-18T01:00:39;79.68;;;33.28;;
44130;SDS011;29792;48.726;9.248;2022-12-18T01:03:05;68.60;;;31.20;;
44130;SDS011;29792;48.726;9.248;2022-12-18T01:05:31;67.55;;;29.83;;
44130;SDS011;29792;48.726;9.248;2022-12-18T01:07:56;66.20;;;30.60;;
44130;SDS011;29792;48.726;9.248;2022-12-18T01:10:22;70.28;;;31.17;;
44130;SDS011;29792;48.726;9.248;2022-12-18T01:12:48;77.78;;;32.95;;
44130;SDS011;29792;48.726;9.248;2022-12-18T01:15:14;73.43;;;31.20;;
44130;SDS011;29792;48.726;9.248;2022-12-18T01:17:40;87.85;;;29.98;;
44130;SDS011;29792;48.726;9.248;2022-12-18T01:20:06;73.22;;;32.80;;
44130;SDS011;29792;48.726;9.248;2022-12-18T01:22:33;89.85;;;32.70;;
44130;SDS011;29792;48.726;9.248;2022-12-18T01:24:58;76.72;;;30.13;;
44130;SDS011;29792;48.726;9.248;2022-12-18T01:27:24;96.93;;;33.65;;
44130;SDS011;29792;48.726;9.248;2022-12-18T01:29:49;86.95;;;32.05;;
44130;SDS011;29792;48.726;9.248;2022-12-18T01:32:14;152.52;;;35.47;;
44130;SDS011;29792;48.726;9.248;2022-12-18T01:34:40;77.80;;;29.67;;
44130;SDS011;29792;48.726;9.248;2022-12-18T01:37:05;50.83;;;28.95;;
44130;SDS011;29792;48.726;9.248;2022-12-18T01:39:31;53.95;;;27.85;;
44130;SDS011;29792;48.726;9.248;2022-12-18T01:41:57;53.53;;;27.13;;
44130;SDS011;29792;48.726;9.248;2022-12-18T01:49:54;52.92;;;26.20;;
44130;SDS011;29792;48.726;9.248;2022-12-18T01:52:21;54.13;;;25.08;;
44130;SDS011;29792;48.726;9.248;2022-12-18T01:54:47;56.25;;;26.05;;
44130;SDS011;29792;48.726;9.248;2022-12-18T01:57:15;47.58;;;24.50;;
44130;SDS011;29792;48.726;9.248;2022-12-18T01:59:41;57.63;;;29.17;;
44130;SDS011;29792;48.726;9.248;2022-12-18T02:02:10;53.78;;;30.02;;
44130;SDS011;29792;48.726;9.248;2022-12-18T02:04:36;60.85;;;31.67;;
44130;SDS011;29792;48.726;9.248;2022-12-18T02:09:46;56.17;;;28.27;;
44130;SDS011;29792;48.726;9.248;2022-12-18T02:12:21;56.75;;;29.58;;
44130;SDS011;29792;48.726;9.248;2022-12-18T02:14:52;57.92;;;32.08;;
44130;SDS011;29792;48.726;9.248;2022-12-18T02:17:27;61.47;;;30.20;;
44130;SDS011;29792;48.726;9.248;2022-12-18T02:20:17;59.80;;;28.13;;
44130;SDS011;29792;48.726;9.248;2022-12-18T02:31:21;42.47;;;23.27;;
44130;SDS011;29792;48.726;9.248;2022-12-18T02:33:50;54.63;;;27.85;;
44130;SDS011;29792;48.726;9.248;2022-12-18T02:36:20;59.50;;;27.60;;
44130;SDS011;29792;48.726;9.248;2022-12-18T02:38:47;60.03;;;29.98;;
44130;SDS011;29792;48.726;9.248;2022-12-18T02:41:13;56.13;;;28.73;;
44130;SDS011;29792;48.726;9.248;2022-12-18T02:43:40;59.88;;;28.75;;
44130;SDS011;29792;48.726;9.248;2022-12-18T02:46:23;67.18;;;30.67;;
44130;SDS011;29792;48.726;9.248;2022-12-18T02:49:06;63.25;;;27.90;;
44130;SDS011;29792;48.726;9.248;2022-12-18T02:51:55;53.00;;;27.83;;
44130;SDS011;29792;48.726;9.248;2022-12-18T02:57:08;48.40;;;23.80;;
44130;SDS011;29792;48.726;9.248;2022-12-18T02:59:49;63.97;;;31.88;;
44130;SDS011;29792;48.726;9.248;2022-12-18T03:02:21;51.63;;;27.15;;
44130;SDS011;29792;48.726;9.248;2022-12-18T03:07:42;53.53;;;27.20;;
44130;SDS011;29792;48.726;9.248;2022-12-18T03:10:21;55.17;;;26.88;;
44130;SDS011;29792;48.726;9.248;2022-12-18T03:12:52;48.08;;;25.30;;
44130;SDS011;29792;48.726;9.248;2022-12-18T03:15:27;48.42;;;24.98;;
44130;SDS011;29792;48.726;9.248;2022-12-18T03:17:59;44.97;;;23.52;;
44130;SDS011;29792;48.726;9.248;2022-12-18T03:20:35;49.38;;;25.10;;
44130;SDS011;29792;48.726;9.248;2022-12-18T03:23:07;57.42;;;31.83;;
44130;SDS011;29792;48.726;9.248;2022-12-18T03:25:37;48.15;;;25.58;;
44130;SDS011;29792;48.726;9.248;2022-12-18T03:28:05;54.85;;;24.77;;
44130;SDS011;29792;48.726;9.248;2022-12-18T03:30:37;58.78;;;26.52;;
44130;SDS011;29792;48.726;9.248;2022-12-18T03:33:50;57.45;;;26.73;;
44130;SDS011;29792;48.726;9.248;2022-12-18T03:36:06;54.50;;;25.73;;
44130;SDS011;29792;48.726;9.248;2022-12-18T03:38:31;46.85;;;24.50;;
44130;SDS011;29792;48.726;9.248;2022-12-18T03:43:34;38.80;;;26.08;;
44130;SDS011;29792;48.726;9.248;2022-12-18T03:46:09;55.92;;;25.23;;
44130;SDS011;29792;48.726;9.248;2022-12-18T03:48:43;43.60;;;22.20;;
44130;SDS011;29792;48.726;9.248;2022-12-18T03:51:17;41.40;;;23.00;;
44130;SDS011;29792;48.726;9.248;2022-12-18T03:53:55;52.50;;;27.63;;
44130;SDS011;29792;48.726;9.248;2022-12-18T03:56:26;51.63;;;22.73;;
44130;SDS011;29792;48.726;9.248;2022-12-18T03:58:55;47.65;;;24.98;;
44130;SDS011;29792;48.726;9.248;2022-12-18T04:01:24;63.47;;;25.98;;
44130;SDS011;29792;48.726;9.248;2022-12-18T04:03:55;52.63;;;25.35;;
44130;SDS011;29792;48.726;9.248;2022-12-18T04:06:23;55.33;;;25.77;;
44130;SDS011;29792;48.726;9.248;2022-12-18T04:08:48;52.08;;;28.25;;
44130;SDS011;29792;48.726;9.248;2022-12-18T04:11:14;55.38;;;27.63;;
44130;SDS011;29792;48.726;9.248;2022-12-18T04:13:41;49.72;;;23.60;;
44130;SDS011;29792;48.726;9.248;2022-12-18T04:16:07;51.13;;;25.77;;
44130;SDS011;29792;48.726;9.248;2022-12-18T04:18:34;65.65;;;30.10;;
44130;SDS011;29792;48.726;9.248;2022-12-18T04:21:00;51.83;;;26.13;;
44130;SDS011;29792;48.726;9.248;2022-12-18T04:23:26;54.35;;;25.63;;
44130;SDS011;29792;48.726;9.248;2022-12-18T04:25:51;60.83;;;25.65;;
44130;SDS011;29792;48.726;9.248;2022-12-18T04:28:17;63.40;;;27.27;;
44130;SDS011;29792;48.726;9.248;2022-12-18T04:30:42;51.65;;;26.67;;
44130;SDS011;29792;48.726;9.248;2022-12-18T04:33:11;49.83;;;24.40;;
44130;SDS011;29792;48.726;9.248;2022-12-18T04:35:38;51.75;;;24.27;;
44130;SDS011;29792;48.726;9.248;2022-12-18T04:38:05;47.00;;;23.23;;
44130;SDS011;29792;48.726;9.248;2022-12-18T04:40:33;52.22;;;24.50;;
44130;SDS011;29792;48.726;9.248;2022-12-18T04:42:59;52.05;;;25.50;;
44130;SDS011;29792;48.726;9.248;2022-12-18T04:45:24;46.50;;;23.13;;
44130;SDS011;29792;48.726;9.248;2022-12-18T04:47:49;42.83;;;22.15;;
44130;SDS011;29792;48.726;9.248;2022-12-18T04:50:15;45.20;;;22.70;;
44130;SDS011;29792;48.726;9.248;2022-12-18T04:52:40;40.92;;;18.42;;
44130;SDS011;29792;48.726;9.248;2022-12-18T04:55:05;46.00;;;23.38;;
44130;SDS011;29792;48.726;9.248;2022-12-18T04:57:31;43.30;;;20.58;;
44130;SDS011;29792;48.726;9.248;2022-12-18T04:59:56;49.00;;;22.52;;
44130;SDS011;29792;48.726;9.248;2022-12-18T05:02:22;58.03;;;25.95;;
44130;SDS011;29792;48.726;9.248;2022-12-18T05:04:47;50.85;;;23.90;;
44130;SDS011;29792;48.726;9.248;2022-12-18T05:07:12;41.88;;;21.52;;
44130;SDS011;29792;48.726;9.248;2022-12-18T05:09:37;49.83;;;23.05;;
44130;SDS011;29792;48.726;9.248;2022-12-18T05:12:03;38.95;;;20.80;;
44130;SDS011;29792;48.726;9.248;2022-12-18T05:14:28;43.97;;;22.58;;
44130;SDS011;29792;48.726;9.248;2022-12-18T05:16:54;42.38;;;19.05;;
44130;SDS011;29792;48.726;9.248;2022-12-18T05:19:19;45.78;;;20.63;;
44130;SDS011;29792;48.726;9.248;2022-12-18T05:21:44;39.28;;;20.45;;
44130;SDS011;29792;48.726;9.248;2022-12-18T05:24:10;38.78;;;20.15;;
44130;SDS011;29792;48.726;9.248;2022-12-18T05:26:35;43.35;;;21.90;;
44130;SDS011;29792;48.726;9.248;2022-12-18T05:29:00;45.08;;;21.80;;
44130;SDS011;29792;48.726;9.248;2022-12-18T05:31:26;35.35;;;20.95;;
44130;SDS011;29792;48.726;9.248;2022-12-18T05:33:51;43.75;;;22.38;;
44130;SDS011;29792;48.726;9.248;2022-12-18T05:36:16;31.40;;;20.48;;
44130;SDS011;29792;48.726;9.248;2022-12-18T05:38:42;40.10;;;21.90;;
44130;SDS011;29792;48.726;9.248;2022-12-18T05:41:07;39.10;;;20.30;;
44130;SDS011;29792;48.726;9.248;2022-12-18T05:43:34;43.90;;;20.17;;
44130;SDS011;29792;48.726;9.248;2022-12-18T05:46:05;46.72;;;22.23;;
44130;SDS011;29792;48.726;9.248;2022-12-18T05:48:35;26.20;;;14.45;;
44130;SDS011;29792;48.726;9.248;2022-12-18T05:51:05;41.20;;;20.55;;
44130;SDS011;29792;48.726;9.248;2022-12-18T05:53:32;37.70;;;18.85;;
44130;SDS011;29792;48.726;9.248;2022-12-18T05:56:02;42.85;;;20.23;;
44130;SDS011;29792;48.726;9.248;2022-12-18T05:58:29;42.38;;;19.60;;
44130;SDS011;29792;48.726;9.248;2022-12-18T06:00:55;44.33;;;21.55;;
44130;SDS011;29792;48.726;9.248;2022-12-18T06:03:20;39.35;;;18.42;;
44130;SDS011;29792;48.726;9.248;2022-12-18T06:05:45;47.55;;;20.30;;
44130;SDS011;29792;48.726;9.248;2022-12-18T06:08:11;39.67;;;20.05;;
44130;SDS011;29792;48.726;9.248;2022-12-18T06:10:37;46.00;;;20.33;;
44130;SDS011;29792;48.726;9.248;2022-12-18T06:13:03;46.35;;;22.02;;
44130;SDS011;29792;48.726;9.248;2022-12-18T06:15:29;46.17;;;21.05;;
44130;SDS011;29792;48.726;9.248;2022-12-18T06:17:54;38.45;;;19.75;;
44130;SDS011;29792;48.726;9.248;2022-12-18T06:20:19;37.42;;;20.30;;
44130;SDS011;29792;48.726;9.248;2022-12-18T06:22:45;32.15;;;17.13;;
44130;SDS011;29792;48.726;9.248;2022-12-18T06:25:10;38.85;;;19.13;;
44130;SDS011;29792;48.726;9.248;2022-12-18T06:27:36;45.28;;;21.30;;
44130;SDS011;29792;48.726;9.248;2022-12-18T06:30:01;35.72;;;17.40;;
44130;SDS011;29792;48.726;9.248;2022-12-18T06:32:27;42.88;;;20.70;;
44130;SDS011;29792;48.726;9.248;2022-12-18T06:34:52;40.83;;;19.67;;
44130;SDS011;29792;48.726;9.248;2022-12-18T06:37:18;34.25;;;17.98;;
44130;SDS011;29792;48.726;9.248;2022-12-18T06:39:44;41.97;;;20.20;;
44130;SDS011;29792;48.726;9.248;2022-12-18T06:42:09;50.45;;;22.00;;
44130;SDS011;29792;48.726;9.248;2022-12-18T06:44:34;37.25;;;19.75;;
44130;SDS011;29792;48.726;9.248;2022-12-18T06:47:00;39.47;;;20.80;;
44130;SDS011;29792;48.726;9.248;2022-12-18T06:49:25;46.88;;;24.23;;
44130;SDS011;29792;48.726;9.248;2022-12-18T06:51:50;39.33;;;19.42;;
44130;SDS011;29792;48.726;9.248;2022-12-18T06:54:16;48.42;;;24.27;;
44130;SDS011;29792;48.726;9.248;2022-12-18T06:56:42;33.15;;;16.73;;
44130;SDS011;29792;48.726;9.248;2022-12-18T06:59:09;46.22;;;22.15;;
44130;SDS011;29792;48.726;9.248;2022-12-18T07:01:34;43.20;;;20.75;;
44130;SDS011;29792;48.726;9.248;2022-12-18T07:04:00;35.92;;;18.77;;
44130;SDS011;29792;48.726;9.248;2022-12-18T07:06:25;39.05;;;19.08;;
44130;SDS011;29792;48.726;9.248;2022-12-18T07:08:51;35.72;;;18.25;;
44130;SDS011;29792;48.726;9.248;2022-12-18T07:11:18;49.03;;;21.75;;
44130;SDS011;29792;48.726;9.248;2022-12-18T07:13:44;50.15;;;26.27;;
44130;SDS011;29792;48.726;9.248;2022-12-18T07:16:11;41.05;;;21.83;;
44130;SDS011;29792;48.726;9.248;2022-12-18T07:18:38;40.35;;;21.10;;
44130;SDS011;29792;48.726;9.248;2022-12-18T07:21:04;45.53;;;22.48;;
44130;SDS011;29792;48.726;9.248;2022-12-18T07:23:31;47.25;;;22.05;;
44130;SDS011;29792;48.726;9.248;2022-12-18T07:26:00;53.50;;;25.90;;
44130;SDS011;29792;48.726;9.248;2022-12-18T07:28:27;51.67;;;24.58;;
44130;SDS011;29792;48.726;9.248;2022-12-18T07:30:52;47.30;;;23.52;;
44130;SDS011;29792;48.726;9.248;2022-12-18T07:33:17;44.67;;;23.33;;
44130;SDS011;29792;48.726;9.248;2022-12-18T07:35:42;45.90;;;21.30;;
44130;SDS011;29792;48.726;9.248;2022-12-18T07:38:08;37.47;;;21.40;;
44130;SDS011;29792;48.726;9.248;2022-12-18T07:40:33;57.10;;;24.70;;
44130;SDS011;29792;48.726;9.248;2022-12-18T07:42:59;40.20;;;21.45;;
44130;SDS011;29792;48.726;9.248;2022-12-18T07:45:24;46.50;;;24.20;;
44130;SDS011;29792;48.726;9.248;2022-12-18T07:47:49;50.65;;;22.65;;
44130;SDS011;29792;48.726;9.248;2022-12-18T07:50:14;53.88;;;24.52;;
44130;SDS011;29792;48.726;9.248;2022-12-18T07:52:40;46.10;;;22.05;;
44130;SDS011;29792;48.726;9.248;2022-12-18T07:55:05;41.08;;;21.52;;
44130;SDS011;29792;48.726;9.248;2022-12-18T07:57:31;46.42;;;22.58;;
44130;SDS011;29792;48.726;9.248;2022-12-18T07:59:56;34.05;;;20.60;;
44130;SDS011;29792;48.726;9.248;2022-12-18T08:02:21;48.80;;;24.40;;
44130;SDS011;29792;48.726;9.248;2022-12-18T08:04:47;40.38;;;20.15;;
44130;SDS011;29792;48.726;9.248;2022-12-18T08:07:12;49.67;;;21.25;;
44130;SDS011;29792;48.726;9.248;2022-12-18T08:09:37;44.22;;;20.35;;
44130;SDS011;29792;48.726;9.248;2022-12-18T08:12:03;40.30;;;21.15;;
44130;SDS011;29792;48.726;9.248;2022-12-18T08:14:28;45.67;;;23.25;;
44130;SDS011;29792;48.726;9.248;2022-12-18T08:16:54;42.05;;;22.13;;
44130;SDS011;29792;48.726;9.248;2022-12-18T08:19:19;40.08;;;19.80;;
44130;SDS011;29792;48.726;9.248;2022-12-18T08:21:44;38.97;;;22.60;;
44130;SDS011;29792;48.726;9.248;2022-12-18T08:24:09;43.38;;;20.60;;
44130;SDS011;29792;48.726;9.248;2022-12-18T08:26:35;37.95;;;19.55;;
44130;SDS011;29792;48.726;9.248;2022-12-18T08:29:01;42.65;;;23.08;;
44130;SDS011;29792;48.726;9.248;2022-12-18T08:31:27;42.78;;;23.73;;
44130;SDS011;29792;48.726;9.248;2022-12-18T08:33:54;44.97;;;22.83;;
44130;SDS011;29792;48.726;9.248;2022-12-18T08:36:20;43.63;;;24.60;;
44130;SDS011;29792;48.726;9.248;2022-12-18T08:38:46;41.35;;;25.48;;
44130;SDS011;29792;48.726;9.248;2022-12-18T08:41:12;48.67;;;28.00;;
44130;SDS011;29792;48.726;9.248;2022-12-18T08:43:39;48.88;;;24.60;;
44130;SDS011;29792;48.726;9.248;2022-12-18T08:46:25;42.05;;;23.05;;
44130;SDS011;29792;48.726;9.248;2022-12-18T08:48:51;48.55;;;25.60;;
44130;SDS011;29792;48.726;9.248;2022-12-18T08:51:18;37.85;;;19.65;;
44130;SDS011;29792;48.726;9.248;2022-12-18T08:53:43;36.22;;;20.75;;
44130;SDS011;29792;48.726;9.248;2022-12-18T08:56:09;39.38;;;22.80;;
44130;SDS011;29792;48.726;9.248;2022-12-18T08:58:35;37.92;;;20.38;;
44130;SDS011;29792;48.726;9.248;2022-12-18T09:01:01;38.33;;;24.58;;
44130;SDS011;29792;48.726;9.248;2022-12-18T09:03:27;39.05;;;22.75;;
44130;SDS011;29792;48.726;9.248;2022-12-18T09:05:52;36.63;;;23.70;;
44130;SDS011;29792;48.726;9.248;2022-12-18T09:08:17;42.33;;;22.92;;
44130;SDS011;29792;48.726;9.248;2022-12-18T09:10:43;36.58;;;21.27;;
44130;SDS011;29792;48.726;9.248;2022-12-18T09:13:11;41.30;;;22.02;;
44130;SDS011;29792;48.726;9.248;2022-12-18T09:15:40;44.30;;;27.13;;
44130;SDS011;29792;48.726;9.248;2022-12-18T09:18:13;43.60;;;23.95;;
44130;SDS011;29792;48.726;9.248;2022-12-18T09:20:40;44.70;;;24.35;;
44130;SDS011;29792;48.726;9.248;2022-12-18T09:23:06;37.28;;;20.85;;
44130;SDS011;29792;48.726;9.248;2022-12-18T09:25:32;40.88;;;24.40;;
44130;SDS011;29792;48.726;9.248;2022-12-18T09:28:00;40.08;;;25.30;;
44130;SDS011;29792;48.726;9.248;2022-12-18T09:30:30;42.55;;;25.33;;
44130;SDS011;29792;48.726;9.248;2022-12-18T09:32:58;41.10;;;23.27;;
44130;SDS011;29792;48.726;9.248;2022-12-18T09:35:23;39.75;;;22.63;;
44130;SDS011;29792;48.726;9.248;2022-12-18T09:37:49;46.20;;;23.02;;
44130;SDS011;29792;48.726;9.248;2022-12-18T09:40:14;45.70;;;25.42;;
44130;SDS011;29792;48.726;9.248;2022-12-18T09:42:44;39.17;;;20.08;;
44130;SDS011;29792;48.726;9.248;2022-12-18T09:45:13;39.85;;;23.80;;
44130;SDS011;29792;48.726;9.248;2022-12-18T09:47:40;47.97;;;26.45;;
44130;SDS011;29792;48.726;9.248;2022-12-18T09:50:23;43.17;;;23.48;;
44130;SDS011;29792;48.726;9.248;2022-12-18T09:52:55;40.20;;;23.15;;
44130;SDS011;29792;48.726;9.248;2022-12-18T09:55:25;40.10;;;23.08;;
44130;SDS011;29792;48.726;9.248;2022-12-18T09:58:03;43.90;;;26.60;;
44130;SDS011;29792;48.726;9.248;2022-12-18T10:00:35;44.33;;;24.40;;
44130;SDS011;29792;48.726;9.248;2022-12-18T10:03:08;47.42;;;25.85;;
44130;SDS011;29792;48.726;9.248;2022-12-18T10:08:48;48.67;;;25.90;;
44130;SDS011;29792;48.726;9.248;2022-12-18T10:14:47;41.22;;;24.38;;
44130;SDS011;29792;48.726;9.248;2022-12-18T10:17:55;40.63;;;27.05;;
44130;SDS011;29792;48.726;9.248;2022-12-18T10:20:44;44.45;;;29.25;;
44130;SDS011;29792;48.726;9.248;2022-12-18T10:23:27;37.63;;;23.67;;
44130;SDS011;29792;48.726;9.248;2022-12-18T10:26:04;42.70;;;25.00;;
44130;SDS011;29792;48.726;9.248;2022-12-18T10:28:32;36.50;;;22.23;;
44130;SDS011;29792;48.726;9.248;2022-12-18T10:30:59;40.92;;;22.92;;
44130;SDS011;29792;48.726;9.248;2022-12-18T10:33:27;52.20;;;28.58;;
44130;SDS011;29792;48.726;9.248;2022-12-18T10:35:54;36.25;;;20.90;;
44130;SDS011;29792;48.726;9.248;2022-12-18T10:38:24;35.33;;;24.17;;
44130;SDS011;29792;48.726;9.248;2022-12-18T10:41:01;39.33;;;22.45;;
44130;SDS011;29792;48.726;9.248;2022-12-18T10:44:09;43.22;;;24.23;;
44130;SDS011;29792;48.726;9.248;2022-12-18T10:46:36;33.90;;;20.27;;
44130;SDS011;29792;48.726;9.248;2022-12-18T10:49:02;35.13;;;21.73;;
44130;SDS011;29792;48.726;9.248;2022-12-18T10:51:29;31.90;;;19.10;;
44130;SDS011;29792;48.726;9.248;2022-12-18T10:56:39;41.85;;;21.63;;
44130;SDS011;29792;48.726;9.248;2022-12-18T10:59:06;38.38;;;23.50;;
44130;SDS011;29792;48.726;9.248;2022-12-18T11:04:30;37.83;;;21.90;;
44130;SDS011;29792;48.726;9.248;2022-12-18T11:11:55;40.25;;;24.20;;
44130;SDS011;29792;48.726;9.248;2022-12-18T11:17:16;35.30;;;19.55;;
44130;SDS011;29792;48.726;9.248;2022-12-18T11:19:57;34.25;;;21.38;;
44130;SDS011;29792;48.726;9.248;2022-12-18T11:22:31;33.55;;;21.05;;
44130;SDS011;29792;48.726;9.248;2022-12-18T11:25:00;35.53;;;21.58;;
44130;SDS011;29792;48.726;9.248;2022-12-18T11:27:27;38.88;;;23.50;;
44130;SDS011;29792;48.726;9.248;2022-12-18T11:30:06;39.63;;;23.73;;
44130;SDS011;29792;48.726;9.248;2022-12-18T11:32:34;33.35;;;19.35;;
44130;SDS011;29792;48.726;9.248;2022-12-18T11:35:14;33.13;;;22.23;;
44130;SDS011;29792;48.726;9.248;2022-12-18T11:37:59;36.10;;;22.52;;
44130;SDS011;29792;48.726;9.248;2022-12-18T11:40:34;38.03;;;22.08;;
44130;SDS011;29792;48.726;9.248;2022-12-18T11:46:05;36.83;;;21.33;;
44130;SDS011;29792;48.726;9.248;2022-12-18T11:48:43;37.00;;;22.95;;
44130;SDS011;29792;48.726;9.248;2022-12-18T11:51:32;37.47;;;20.23;;
44130;SDS011;29792;48.726;9.248;2022-12-18T11:54:07;40.60;;;24.27;;
44130;SDS011;29792;48.726;9.248;2022-12-18T11:56:39;39.55;;;23.58;;
44130;SDS011;29792;48.726;9.248;2022-12-18T12:02:11;37.30;;;22.13;;
44130;SDS011;29792;48.726;9.248;2022-12-18T12:04:47;37.20;;;22.13;;
44130;SDS011;29792;48.726;9.248;2022-12-18T12:07:36;45.83;;;25.27;;
44130;SDS011;29792;48.726;9.248;2022-12-18T12:10:12;39.53;;;22.27;;
44130;SDS011;29792;48.726;9.248;2022-12-18T12:18:21;37.67;;;20.85;;
44130;SDS011;29792;48.726;9.248;2022-12-18T12:26:50;46.13;;;23.52;;
44130;SDS011;29792;48.726;9.248;2022-12-18T12:29:40;38.85;;;21.52;;
44130;SDS011;29792;48.726;9.248;2022-12-18T12:34:54;43.80;;;26.75;;
44130;SDS011;29792;48.726;9.248;2022-12-18T12:40:43;49.45;;;26.55;;
44130;SDS011;29792;48.726;9.248;2022-12-18T12:45:49;39.95;;;22.58;;
44130;SDS011;29792;48.726;9.248;2022-12-18T12:48:27;41.70;;;26.02;;
44130;SDS011;29792;48.726;9.248;2022-12-18T12:51:04;48.05;;;27.25;;
44130;SDS011;29792;48.726;9.248;2022-12-18T12:53:35;42.90;;;24.17;;
44130;SDS011;29792;48.726;9.248;2022-12-18T12:56:04;44.60;;;24.20;;
44130;SDS011;29792;48.726;9.248;2022-12-18T13:01:28;46.95;;;22.65;;
44130;SDS011;29792;48.726;9.248;2022-12-18T13:07:01;43.63;;;23.15;;
44130;SDS011;29792;48.726;9.248;2022-12-18T13:12:36;44.50;;;22.45;;
44130;SDS011;29792;48.726;9.248;2022-12-18T13:15:21;47.85;;;24.30;;
44130;SDS011;29792;48.726;9.248;2022-12-18T13:34:39;40.38;;;22.58;;
44130;SDS011;29792;48.726;9.248;2022-12-18T13:36:46;38.78;;;21.23;;
44130;SDS011;29792;48.726;9.248;2022-12-18T13:41:44;45.42;;;24.75;;
44130;SDS011;29792;48.726;9.248;2022-12-18T13:44:12;39.45;;;21.98;;
44130;SDS011;29792;48.726;9.248;2022-12-18T13:46:55;43.65;;;27.27;;
44130;SDS011;29792;48.726;9.248;2022-12-18T13:49:23;47.10;;;26.83;;
44130;SDS011;29792;48.726;9.248;2022-12-18T13:51:51;40.95;;;23.58;;
44130;SDS011;29792;48.726;9.248;2022-12-18T13:54:19;44.47;;;24.65;;
44130;SDS011;29792;48.726;9.248;2022-12-18T13:56:52;47.00;;;25.77;;
44130;SDS011;29792;48.726;9.248;2022-12-18T13:59:21;46.47;;;23.55;;
44130;SDS011;29792;48.726;9.248;2022-12-18T14:01:53;47.95;;;24.88;;
44130;SDS011;29792;48.726;9.248;2022-12-18T14:04:21;44.30;;;24.67;;
44130;SDS011;29792;48.726;9.248;2022-12-18T14:06:51;45.88;;;27.92;;
44130;SDS011;29792;48.726;9.248;2022-12-18T14:09:21;41.47;;;24.60;;
44130;SDS011;29792;48.726;9.248;2022-12-18T14:11:50;41.03;;;23.92;;
44130;SDS011;29792;48.726;9.248;2022-12-18T14:14:16;42.83;;;24.15;;
44130;SDS011;29792;48.726;9.248;2022-12-18T14:16:43;47.10;;;23.88;;
44130;SDS011;29792;48.726;9.248;2022-12-18T14:19:12;40.55;;;22.63;;
44130;SDS011;29792;48.726;9.248;2022-12-18T14:21:40;43.17;;;27.15;;
44130;SDS011;29792;48.726;9.248;2022-12-18T14:24:13;36.53;;;23.15;;
44130;SDS011;29792;48.726;9.248;2022-12-18T14:26:41;37.60;;;22.33;;
44130;SDS011;29792;48.726;9.248;2022-12-18T14:29:24;52.03;;;25.35;;
44130;SDS011;29792;48.726;9.248;2022-12-18T14:32:09;49.55;;;24.13;;
44130;SDS011;29792;48.726;9.248;2022-12-18T14:34:36;45.63;;;22.52;;
44130;SDS011;29792;48.726;9.248;2022-12-18T14:37:01;52.80;;;25.17;;
44130;SDS011;29792;48.726;9.248;2022-12-18T14:39:26;39.00;;;22.83;;
44130;SDS011;29792;48.726;9.248;2022-12-18T14:41:52;55.35;;;29.92;;
44130;SDS011;29792;48.726;9.248;2022-12-18T14:44:17;55.15;;;29.50;;
44130;SDS011;29792;48.726;9.248;2022-12-18T14:46:44;43.90;;;25.73;;
44130;SDS011;29792;48.726;9.248;2022-12-18T14:49:18;45.70;;;27.95;;
44130;SDS011;29792;48.726;9.248;2022-12-18T14:51:51;48.05;;;24.65;;
44130;SDS011;29792;48.726;9.248;2022-12-18T14:54:18;51.83;;;27.08;;
44130;SDS011;29792;48.726;9.248;2022-12-18T14:56:46;71.93;;;27.10;;
44130;SDS011;29792;48.726;9.248;2022-12-18T14:59:14;46.47;;;28.48;;
44130;SDS011;29792;48.726;9.248;2022-12-18T15:01:47;41.17;;;24.25;;
44130;SDS011;29792;48.726;9.248;2022-12-18T15:04:25;45.47;;;25.17;;
44130;SDS011;29792;48.726;9.248;2022-12-18T15:07:02;47.70;;;26.80;;
44130;SDS011;29792;48.726;9.248;2022-12-18T15:09:31;35.88;;;23.67;;
44130;SDS011;29792;48.726;9.248;2022-12-18T15:11:58;45.00;;;22.30;;
44130;SDS011;29792;48.726;9.248;2022-12-18T15:17:00;50.47;;;25.55;;
44130;SDS011;29792;48.726;9.248;2022-12-18T15:19:32;54.10;;;27.90;;
44130;SDS011;29792;48.726;9.248;2022-12-18T15:22:22;53.97;;;28.73;;
44130;SDS011;29792;48.726;9.248;2022-12-18T15:24:52;53.70;;;27.40;;
44130;SDS011;29792;48.726;9.248;2022-12-18T15:27:24;50.40;;;25.90;;
44130;SDS011;29792;48.726;9.248;2022-12-18T15:30:00;45.03;;;25.13;;
44130;SDS011;29792;48.726;9.248;2022-12-18T15:32:25;45.40;;;24.80;;
44130;SDS011;29792;48.726;9.248;2022-12-18T15:34:50;51.97;;;27.52;;
44130;SDS011;29792;48.726;9.248;2022-12-18T15:37:47;47.17;;;25.48;;
44130;SDS011;29792;48.726;9.248;2022-12-18T15:40:14;43.88;;;24.48;;
44130;SDS011;29792;48.726;9.248;2022-12-18T15:42:41;43.63;;;22.83;;
44130;SDS011;29792;48.726;9.248;2022-12-18T15:45:26;36.33;;;20.83;;
44130;SDS011;29792;48.726;9.248;2022-12-18T15:47:51;45.85;;;26.95;;
44130;SDS011;29792;48.726;9.248;2022-12-18T15:50:17;47.42;;;25.27;;
44130;SDS011;29792;48.726;9.248;2022-12-18T15:52:43;52.25;;;28.35;;
44130;SDS011;29792;48.726;9.248;2022-12-18T15:55:11;51.78;;;28.20;;
44130;SDS011;29792;48.726;9.248;2022-12-18T15:57:56;56.88;;;30.17;;
44130;SDS011;29792;48.726;9.248;2022-12-18T16:00:21;48.15;;;26.48;;
44130;SDS011;29792;48.726;9.248;2022-12-18T16:02:47;52.00;;;27.50;;
44130;SDS011;29792;48.726;9.248;2022-12-18T16:05:16;46.80;;;27.45;;
44130;SDS011;29792;48.726;9.248;2022-12-18T16:07:43;53.20;;;29.77;;
44130;SDS011;29792;48.726;9.248;2022-12-18T16:10:09;59.97;;;29.25;;
44130;SDS011;29792;48.726;9.248;2022-12-18T16:12:34;56.30;;;28.73;;
44130;SDS011;29792;48.726;9.248;2022-12-18T16:15:00;48.25;;;24.92;;
44130;SDS011;29792;48.726;9.248;2022-12-18T16:17:25;50.55;;;27.10;;